Time;durP1;ratioP1;P1;durP2;ratioP2;P2;SDS_P1;SDS_P2;PMS_P1;PMS_P2;Temp;Humidity;BMP_temperature;BMP_pressure;BME280_temperature;BME280_humidity;BME280_pressure;Samples;Min_cycle;Max_cycle;Signal;HPM_P1;HPM_P2
2021/01/24 00:01:05;;;;;;;12.20;7.30;;;;;;;4.73;93.84;99981.00;1771949;81;21845;-79
2021/01/24 00:04:10;;;;;;;14.18;7.58;;;;;;;4.79;93.73;99970.91;1772043;81;21146;-79
2021/01/24 00:07:15;;;;;;;13.15;6.80;;;;;;;4.87;93.50;99971.03;1772076;81;21260;-79
2021/01/24 00:10:20;;;;;;;11.57;6.37;;;;;;;4.95;93.32;99961.33;1771967;81;21288;-79
2021/01/24 00:13:26;;;;;;;11.83;6.12;;;;;;;5.01;93.05;99961.57;1771272;81;21287;-79
2021/01/24 00:16:31;;;;;;;13.28;5.65;;;;;;;5.05;92.68;99962.14;1772035;81;21311;-79
2021/01/24 00:19:37;;;;;;;10.65;5.62;;;;;;;5.09;92.36;99960.33;1772170;81;21323;-79
2021/01/24 00:22:45;;;;;;;10.50;5.97;;;;;;;5.11;92.04;99966.45;1771173;81;21169;-79
2021/01/24 00:25:51;;;;;;;9.55;6.10;;;;;;;5.17;91.83;99958.20;1772002;81;21257;-79
2021/01/24 00:28:56;;;;;;;12.68;6.47;;;;;;;5.22;91.50;99965.42;1772069;81;21189;-79
2021/01/24 00:32:02;;;;;;;10.35;6.22;;;;;;;5.27;91.11;99959.52;1771922;81;21292;-79
2021/01/24 00:35:08;;;;;;;10.05;6.40;;;;;;;5.30;90.76;99964.14;1763645;81;21291;-79
2021/01/24 00:38:14;;;;;;;10.82;6.20;;;;;;;5.34;90.45;99969.62;1772150;81;21354;-79
2021/01/24 00:41:20;;;;;;;14.40;7.20;;;;;;;5.39;90.17;99963.23;1772162;81;21882;-79
2021/01/24 00:44:25;;;;;;;12.23;7.78;;;;;;;5.42;89.83;99961.23;1772020;81;21295;-79
2021/01/24 00:47:30;;;;;;;12.10;6.35;;;;;;;5.43;89.50;99964.30;1771972;81;21264;-79
2021/01/24 00:50:39;;;;;;;9.58;5.50;;;;;;;5.43;89.23;99965.66;1771935;81;21269;-79
2021/01/24 00:53:44;;;;;;;15.50;6.50;;;;;;;5.45;89.06;99956.84;1771061;81;21264;-79
2021/01/24 00:56:49;;;;;;;12.75;6.20;;;;;;;5.47;88.76;99953.50;1772081;81;21252;-79
2021/01/24 00:59:54;;;;;;;13.55;6.17;;;;;;;5.51;88.47;99950.84;1771984;81;21268;-79
2021/01/24 01:02:59;;;;;;;10.13;6.10;;;;;;;5.52;88.13;99952.53;1771600;81;21158;-80
2021/01/24 01:06:04;;;;;;;12.23;6.40;;;;;;;5.53;87.88;99959.16;1772240;81;21700;-79
2021/01/24 01:09:10;;;;;;;11.88;5.90;;;;;;;5.56;87.77;99956.66;1772033;81;21299;-79
2021/01/24 01:12:16;;;;;;;9.33;5.83;;;;;;;5.60;87.48;99948.56;1772090;81;21305;-79
2021/01/24 01:15:23;;;;;;;14.47;5.58;;;;;;;5.63;87.18;99954.52;1771937;81;21257;-80
2021/01/24 01:18:28;;;;;;;13.13;7.30;;;;;;;5.62;86.95;99953.32;1770923;81;21276;-79
2021/01/24 01:21:34;;;;;;;8.05;5.53;;;;;;;5.61;86.84;99955.69;1771955;81;21272;-79
2021/01/24 01:24:39;;;;;;;10.55;5.62;;;;;;;5.59;86.70;99952.26;1771451;80;21276;-80
2021/01/24 01:27:45;;;;;;;11.18;6.08;;;;;;;5.58;86.50;99954.63;1771668;81;21814;-80
2021/01/24 01:30:51;;;;;;;13.80;6.45;;;;;;;5.54;86.09;99947.80;1772218;81;21257;-80
2021/01/24 01:33:56;;;;;;;13.90;6.00;;;;;;;5.42;86.08;99943.61;1771822;81;21284;-79
2021/01/24 01:37:00;;;;;;;11.63;6.72;;;;;;;5.35;86.40;99948.27;1771855;81;21276;-80
2021/01/24 01:40:07;;;;;;;13.58;6.55;;;;;;;5.31;86.52;99942.79;1772243;81;21814;-80
2021/01/24 01:43:13;;;;;;;12.37;6.35;;;;;;;5.28;86.69;99947.69;1771241;81;21335;-79
2021/01/24 01:46:20;;;;;;;14.07;6.45;;;;;;;5.25;86.78;99945.27;1771976;81;21687;-80
2021/01/24 01:49:27;;;;;;;12.37;6.20;;;;;;;5.21;86.90;99950.13;1771753;81;21304;-80
2021/01/24 01:52:34;;;;;;;8.75;6.00;;;;;;;5.19;87.02;99948.59;1772231;81;21806;-79
2021/01/24 01:55:39;;;;;;;12.00;6.20;;;;;;;5.15;87.12;99946.67;1771977;81;21823;-79
2021/01/24 01:58:45;;;;;;;14.75;6.50;;;;;;;5.14;87.24;99957.17;1772101;81;21311;-80
2021/01/24 02:02:15;;;;;;;10.70;6.45;;;;;;;5.12;87.33;99949.16;1772084;81;21272;-80
2021/01/24 02:05:52;;;;;;;13.03;6.42;;;;;;;5.12;87.44;99951.88;1772307;81;21284;-80
2021/01/24 02:09:03;;;;;;;14.05;7.17;;;;;;;5.12;87.51;99951.03;1771996;81;21185;-80
2021/01/24 02:12:37;;;;;;;11.73;6.17;;;;;;;5.11;87.53;99942.05;1772044;81;21153;-80
2021/01/24 02:15:42;;;;;;;13.05;6.37;;;;;;;5.09;87.61;99944.57;1772138;81;21150;-80
2021/01/24 02:18:47;;;;;;;9.40;6.05;;;;;;;5.07;87.69;99942.49;1763613;81;21197;-79
2021/01/24 02:21:52;;;;;;;10.53;5.87;;;;;;;5.06;87.72;99948.92;1772000;81;21268;-80
2021/01/24 02:25:23;;;;;;;12.10;5.40;;;;;;;5.03;87.77;99944.64;1772133;81;21276;-79
2021/01/24 02:29:05;;;;;;;15.70;6.28;;;;;;;5.02;87.75;99943.45;1762854;81;21312;-80
2021/01/24 02:32:12;;;;;;;13.25;6.25;;;;;;;4.98;87.85;99941.53;1771978;81;21299;-80
2021/01/24 02:35:18;;;;;;;14.40;6.87;;;;;;;4.97;87.99;99936.27;1772194;81;21846;-79
2021/01/24 02:38:23;;;;;;;10.32;6.25;;;;;;;4.98;88.17;99933.91;1771870;81;21276;-80
2021/01/24 02:41:29;;;;;;;13.85;6.67;;;;;;;4.99;88.18;99930.22;1771911;81;21316;-80
2021/01/24 02:44:34;;;;;;;14.03;6.15;;;;;;;5.00;88.26;99934.63;1772057;81;21134;-80
2021/01/24 02:47:39;;;;;;;9.30;5.85;;;;;;;5.02;88.37;99933.95;1772032;81;21839;-80
2021/01/24 02:50:45;;;;;;;11.78;6.87;;;;;;;5.03;88.39;99935.66;1772055;81;21265;-79
2021/01/24 02:53:49;;;;;;;11.35;6.22;;;;;;;5.03;88.44;99938.37;1763577;81;23191;-80
2021/01/24 02:56:55;;;;;;;9.65;6.28;;;;;;;5.05;88.42;99937.73;1772021;81;21267;-80
2021/01/24 03:00:00;;;;;;;13.60;6.40;;;;;;;5.06;88.41;99939.44;1742836;81;21264;-80
2021/01/24 03:03:06;;;;;;;13.72;6.67;;;;;;;5.10;88.40;99939.49;1771855;81;21300;-80
2021/01/24 03:06:11;;;;;;;10.95;6.70;;;;;;;5.12;88.36;99934.77;1761760;81;21260;-80
2021/01/24 03:09:17;;;;;;;10.98;7.10;;;;;;;5.17;88.28;99932.95;1772049;81;21308;-80
2021/01/24 03:12:23;;;;;;;13.88;7.15;;;;;;;5.20;88.20;99938.09;1771991;81;21833;-80
2021/01/24 03:15:29;;;;;;;11.33;7.17;;;;;;;5.21;88.06;99932.50;1771796;81;21339;-79
2021/01/24 03:18:36;;;;;;;14.50;6.33;;;;;;;5.21;87.95;99930.30;1771767;81;21723;-80
2021/01/24 03:21:41;;;;;;;13.43;6.70;;;;;;;5.20;87.90;99936.22;1771949;81;21133;-80
2021/01/24 03:24:46;;;;;;;16.37;7.80;;;;;;;5.20;87.87;99928.59;1763662;81;21295;-80
2021/01/24 03:27:51;;;;;;;14.93;7.90;;;;;;;5.17;87.82;99933.80;1760548;80;21279;-80
2021/01/24 03:31:00;;;;;;;15.38;7.72;;;;;;;5.13;87.91;99943.27;1765584;80;21133;-80
2021/01/24 03:33:58;;;;;;;12.47;7.47;;;;;;;5.05;88.00;99931.81;1780254;80;21269;-79
2021/01/24 03:37:05;;;;;;;13.65;7.35;;;;;;;4.96;88.34;99925.08;1764462;80;21299;-79
2021/01/24 03:40:11;;;;;;;17.35;7.70;;;;;;;4.85;88.69;99937.83;1780154;80;21283;-80
2021/01/24 03:43:17;;;;;;;16.27;8.33;;;;;;;4.76;89.12;99931.94;1780416;80;21190;-80
2021/01/24 03:46:24;;;;;;;22.77;7.83;;;;;;;4.68;89.57;99930.46;1779496;80;21315;-80
2021/01/24 03:49:30;;;;;;;19.10;8.03;;;;;;;4.62;90.00;99924.29;1779612;80;21173;-80
2021/01/24 03:52:35;;;;;;;13.08;7.30;;;;;;;4.58;90.41;99922.88;1780017;80;21291;-79
2021/01/24 03:55:41;;;;;;;16.12;7.97;;;;;;;4.56;90.77;99920.80;1779467;80;21296;-80
2021/01/24 03:58:47;;;;;;;17.17;8.00;;;;;;;4.55;91.07;99935.34;1779212;80;21224;-80
2021/01/24 04:01:56;;;;;;;20.27;8.08;;;;;;;4.53;91.29;99937.36;1780122;80;21276;-80
2021/01/24 04:05:02;;;;;;;21.65;7.25;;;;;;;4.54;91.47;99930.94;1784505;80;21848;-80
2021/01/24 04:08:07;;;;;;;17.95;8.18;;;;;;;4.52;91.55;99939.22;1779711;80;21244;-79
2021/01/24 04:11:13;;;;;;;17.90;8.00;;;;;;;4.51;91.59;99940.70;1779949;80;21924;-80
2021/01/24 04:14:19;;;;;;;17.52;7.85;;;;;;;4.49;91.71;99935.94;1778829;80;21699;-80
2021/01/24 04:17:24;;;;;;;14.80;6.62;;;;;;;4.46;91.78;99945.70;1763525;80;21335;-80
2021/01/24 04:20:30;;;;;;;16.07;7.40;;;;;;;4.40;91.83;99936.81;1779381;80;21311;-80
2021/01/24 04:23:36;;;;;;;15.23;7.35;;;;;;;4.36;91.98;99932.19;1779285;80;21292;-80
2021/01/24 04:26:42;;;;;;;15.20;7.65;;;;;;;4.29;92.16;99941.41;1778709;80;21328;-80
2021/01/24 04:29:47;;;;;;;13.80;6.80;;;;;;;4.24;92.39;99940.98;1777303;81;21835;-80
2021/01/24 04:32:54;;;;;;;17.32;8.20;;;;;;;4.18;92.68;99944.75;1777119;81;21981;-80
2021/01/24 04:36:02;;;;;;;18.98;7.47;;;;;;;4.15;93.04;99941.00;1776432;81;22075;-79
2021/01/24 04:39:07;;;;;;;19.12;7.15;;;;;;;4.11;93.39;99937.72;1776169;81;21298;-80
2021/01/24 04:42:14;;;;;;;20.25;7.87;;;;;;;4.09;93.76;99932.92;1777398;81;21827;-80
2021/01/24 04:45:19;;;;;;;16.02;7.10;;;;;;;4.08;94.10;99935.28;1777343;81;21152;-80
2021/01/24 04:48:24;;;;;;;17.50;6.78;;;;;;;4.02;94.45;99939.43;1776684;81;21244;-80
2021/01/24 04:51:30;;;;;;;16.90;7.40;;;;;;;4.00;94.93;99941.91;1754837;81;21291;-80
2021/01/24 04:54:36;;;;;;;19.80;7.97;;;;;;;3.98;95.35;99945.27;1752905;81;21275;-80
2021/01/24 04:57:43;;;;;;;24.12;6.78;;;;;;;3.92;95.56;99940.44;1777576;81;21294;-81
2021/01/24 05:00:50;;;;;;;17.35;6.62;;;;;;;3.87;95.92;99944.08;1777486;81;21250;-80
2021/01/24 05:03:58;;;;;;;18.15;6.50;;;;;;;3.84;96.25;99946.05;1777306;81;21295;-80
2021/01/24 05:07:04;;;;;;;15.50;6.67;;;;;;;3.80;96.52;99940.56;1751602;81;21942;-80
2021/01/24 05:10:09;;;;;;;20.52;7.42;;;;;;;3.78;96.79;99948.48;1777245;81;21259;-80
2021/01/24 05:13:15;;;;;;;12.63;6.60;;;;;;;3.77;97.07;99948.98;1727804;81;21229;-80
2021/01/24 05:16:20;;;;;;;17.65;6.25;;;;;;;3.75;97.28;99941.48;1776931;81;21188;-80
2021/01/24 05:19:27;;;;;;;19.00;6.75;;;;;;;3.79;97.49;99952.89;1775907;81;21801;-80
2021/01/24 05:22:32;;;;;;;15.90;6.70;;;;;;;3.76;97.55;99949.10;1775791;81;21833;-80
2021/01/24 05:25:39;;;;;;;17.85;7.22;;;;;;;3.76;97.70;99947.75;1754265;81;21298;-80
2021/01/24 05:28:55;;;;;;;20.72;7.53;;;;;;;3.76;97.89;99939.63;1779415;80;21181;-79
2021/01/24 05:32:01;;;;;;;15.85;6.85;;;;;;;3.75;98.06;99934.72;1785836;80;21169;-80
2021/01/24 05:35:07;;;;;;;15.75;6.83;;;;;;;3.75;98.24;99942.84;1785640;80;21215;-79
2021/01/24 05:38:13;;;;;;;13.68;6.67;;;;;;;3.76;98.36;99932.87;1784409;80;21284;-79
2021/01/24 05:41:19;;;;;;;18.10;7.25;;;;;;;3.75;98.58;99929.81;1785732;80;21734;-80
2021/01/24 05:44:24;;;;;;;16.90;6.60;;;;;;;3.74;98.76;99937.08;1772056;80;21759;-80
2021/01/24 05:47:29;;;;;;;12.70;6.62;;;;;;;3.74;98.84;99938.94;1785732;80;21180;-79
2021/01/24 05:50:35;;;;;;;16.52;6.72;;;;;;;3.74;98.94;99938.43;1772191;80;21188;-80
2021/01/24 05:53:50;;;;;;;18.73;6.05;;;;;;;3.73;98.97;99934.02;1772498;80;21168;-79
2021/01/24 05:56:59;;;;;;;18.95;6.78;;;;;;;3.73;98.99;99935.88;1785644;80;21323;-80
2021/01/24 06:00:06;;;;;;;14.18;5.53;;;;;;;3.73;99.06;99934.02;1785740;80;21165;-79
2021/01/24 06:03:12;;;;;;;16.60;6.58;;;;;;;3.73;99.12;99943.99;1785786;80;21193;-80
2021/01/24 06:06:19;;;;;;;13.48;6.47;;;;;;;3.74;99.15;99933.52;1785674;80;21292;-79
2021/01/24 06:09:24;;;;;;;18.35;6.53;;;;;;;3.75;99.16;99937.43;1769064;80;21300;-80
2021/01/24 06:12:31;;;;;;;17.90;5.80;;;;;;;3.76;99.09;99940.48;1772053;80;21287;-80
2021/01/24 06:15:39;;;;;;;19.82;6.05;;;;;;;3.78;99.00;99935.80;1771312;80;21252;-80
2021/01/24 06:19:05;;;;;;;14.87;5.90;;;;;;;3.80;98.89;99945.12;1769614;80;21208;-79
2021/01/24 06:22:11;;;;;;;15.40;6.08;;;;;;;3.80;98.74;99947.33;1771312;80;21813;-79
2021/01/24 06:25:37;;;;;;;14.18;5.67;;;;;;;3.82;98.56;99948.05;1753984;80;21267;-80
2021/01/24 06:28:45;;;;;;;15.63;5.50;;;;;;;3.85;98.34;99941.48;1771431;80;21315;-79
2021/01/24 06:31:56;;;;;;;13.53;5.60;;;;;;;3.87;97.96;99961.16;1785605;80;21272;-80
2021/01/24 06:35:02;;;;;;;10.93;5.37;;;;;;;3.88;97.67;99946.63;1785823;80;21164;-79
2021/01/24 06:38:08;;;;;;;11.35;4.95;;;;;;;3.90;97.36;99951.88;1771578;80;21165;-79
2021/01/24 06:41:19;;;;;;;17.65;5.58;;;;;;;3.93;97.10;99962.44;1785710;80;21153;-79
2021/01/24 06:44:44;;;;;;;12.80;5.30;;;;;;;3.96;96.84;99952.19;1785836;80;21192;-79
2021/01/24 06:47:49;;;;;;;12.85;4.80;;;;;;;4.01;96.51;99961.23;1771893;80;21306;-79
2021/01/24 06:50:56;;;;;;;11.80;4.55;;;;;;;4.04;96.16;99962.28;1785820;80;21275;-80
2021/01/24 06:54:02;;;;;;;14.35;5.28;;;;;;;4.06;95.93;99956.24;1785777;80;21322;-79
2021/01/24 06:57:16;;;;;;;14.83;4.90;;;;;;;4.09;95.74;99959.99;1785436;80;21698;-79
2021/01/24 07:00:28;;;;;;;14.30;5.42;;;;;;;4.13;95.55;99965.48;1772298;80;22222;-79
2021/01/24 07:03:33;;;;;;;11.55;4.65;;;;;;;4.16;95.36;99967.91;1785850;80;21315;-79
2021/01/24 07:06:40;;;;;;;10.85;4.58;;;;;;;4.20;95.16;99967.13;1769130;80;21157;-79
2021/01/24 07:09:48;;;;;;;13.68;4.87;;;;;;;4.23;94.96;99968.18;1769319;80;21173;-79
2021/01/24 07:12:53;;;;;;;15.75;4.78;;;;;;;4.26;94.87;99971.46;1785904;80;21916;-79
2021/01/24 07:16:04;;;;;;;14.20;4.47;;;;;;;4.29;94.77;99969.83;1786016;80;21267;-79
2021/01/24 07:19:11;;;;;;;12.03;4.97;;;;;;;4.35;94.67;99971.95;1785968;80;21176;-79
2021/01/24 07:22:16;;;;;;;13.58;4.72;;;;;;;4.43;94.63;99978.52;1769416;80;21315;-79
2021/01/24 07:25:22;;;;;;;14.33;4.45;;;;;;;4.52;94.50;99983.91;1785909;80;21259;-79
2021/01/24 07:28:28;;;;;;;12.82;4.42;;;;;;;4.64;94.30;99984.58;1772392;80;21172;-79
2021/01/24 07:31:35;;;;;;;10.20;4.37;;;;;;;4.74;94.00;99989.97;1785464;80;21295;-79
2021/01/24 07:34:41;;;;;;;10.55;4.55;;;;;;;4.82;93.62;99997.73;1785787;80;21145;-79
2021/01/24 07:37:46;;;;;;;8.50;4.05;;;;;;;4.91;93.32;99989.72;1772311;80;21259;-79
2021/01/24 07:40:52;;;;;;;9.10;4.20;;;;;;;5.00;92.94;99995.11;1772604;80;21256;-79
2021/01/24 07:43:58;;;;;;;14.23;4.17;;;;;;;5.07;92.56;99996.72;1785957;80;21189;-79
2021/01/24 07:47:04;;;;;;;15.48;4.62;;;;;;;5.10;92.23;99997.28;1785503;80;21706;-79
2021/01/24 07:50:10;;;;;;;15.40;4.33;;;;;;;5.13;91.94;99992.92;1785891;80;21125;-79
2021/01/24 07:53:16;;;;;;;13.50;4.37;;;;;;;5.15;91.70;99998.19;1785573;80;21260;-79
2021/01/24 07:56:22;;;;;;;12.55;4.87;;;;;;;5.19;91.54;99998.75;1785809;80;21224;-79
2021/01/24 07:59:28;;;;;;;10.40;4.45;;;;;;;5.20;91.27;99997.74;1785867;80;21331;-79
2021/01/24 08:02:37;;;;;;;11.75;4.35;;;;;;;5.21;90.99;99993.52;1785862;80;21181;-79
2021/01/24 08:05:42;;;;;;;10.50;5.20;;;;;;;5.21;90.76;100000.29;1786060;80;21149;-79
2021/01/24 08:08:48;;;;;;;9.95;4.67;;;;;;;5.19;90.53;100005.02;1785693;80;21200;-79
2021/01/24 08:11:55;;;;;;;13.55;5.05;;;;;;;5.22;90.42;100008.80;1785916;80;21572;-79
2021/01/24 08:15:02;;;;;;;13.60;4.87;;;;;;;5.23;90.23;100001.02;1785909;80;21758;-79
2021/01/24 08:18:08;;;;;;;11.33;4.65;;;;;;;5.26;90.01;100006.12;1785725;80;21287;-79
2021/01/24 08:21:15;;;;;;;8.40;4.15;;;;;;;5.28;89.91;100008.70;1785820;80;21268;-79
2021/01/24 08:24:19;;;;;;;7.40;4.10;;;;;;;5.32;89.84;100010.11;1785818;80;21177;-79
2021/01/24 08:27:25;;;;;;;10.43;4.45;;;;;;;5.36;89.73;100005.59;1772397;80;21302;-79
2021/01/24 08:30:31;;;;;;;28.47;7.20;;;;;;;5.39;89.66;99999.85;1772471;80;21268;-79
2021/01/24 08:33:37;;;;;;;16.50;6.10;;;;;;;5.45;89.58;99995.67;1783963;80;21327;-79
2021/01/24 08:36:41;;;;;;;14.90;4.67;;;;;;;5.49;89.57;99994.88;1785828;80;21161;-79
2021/01/24 08:39:46;;;;;;;14.15;4.55;;;;;;;5.55;89.59;99993.78;1784959;80;21346;-79
2021/01/24 08:42:55;;;;;;;14.03;4.35;;;;;;;5.59;89.46;99990.24;1772175;80;21722;-79
2021/01/24 08:46:01;;;;;;;12.68;5.42;;;;;;;5.62;89.54;99988.59;1786095;80;21134;-79
2021/01/24 08:49:09;;;;;;;13.13;3.87;;;;;;;5.66;89.59;99983.72;1772311;80;21188;-79
2021/01/24 08:52:14;;;;;;;14.68;4.72;;;;;;;5.69;89.65;99979.33;1785693;80;21774;-79
2021/01/24 08:55:19;;;;;;;10.75;4.47;;;;;;;5.73;89.73;99972.59;1785639;80;21367;-79
2021/01/24 08:58:34;;;;;;;16.57;4.30;;;;;;;5.75;89.75;99970.59;1784929;80;21219;-78
2021/01/24 09:01:41;;;;;;;9.45;3.90;;;;;;;5.80;89.77;99963.69;1785739;80;21196;-79
2021/01/24 09:04:54;;;;;;;14.60;4.53;;;;;;;5.84;89.73;99959.67;1772863;80;21264;-79
2021/01/24 09:08:01;;;;;;;12.78;3.90;;;;;;;5.89;89.62;99949.20;1785720;80;21287;-79
2021/01/24 09:11:06;;;;;;;12.78;3.98;;;;;;;5.91;89.39;99947.67;1784637;80;21794;-78
2021/01/24 09:14:11;;;;;;;10.53;4.55;;;;;;;5.92;89.17;99948.55;1785819;80;21180;-78
2021/01/24 09:17:22;;;;;;;11.93;4.60;;;;;;;5.92;88.96;99942.62;1785910;80;21192;-79
2021/01/24 09:20:29;;;;;;;14.18;4.30;;;;;;;5.94;88.80;99936.55;1785864;80;21161;-78
2021/01/24 09:23:35;;;;;;;11.30;4.33;;;;;;;5.99;88.71;99943.72;1772516;80;21802;-78
2021/01/24 09:26:41;;;;;;;10.10;3.70;;;;;;;6.05;88.36;99940.87;1785755;80;21750;-78
2021/01/24 09:29:48;;;;;;;15.40;4.40;;;;;;;6.09;87.84;99927.34;1785707;80;21161;-78
2021/01/24 09:32:54;;;;;;;9.30;3.65;;;;;;;6.11;87.35;99930.73;1772061;80;21294;-78
2021/01/24 09:36:01;;;;;;;12.82;3.87;;;;;;;6.13;87.18;99925.52;1785841;80;21676;-78
2021/01/24 09:39:05;;;;;;;11.20;4.40;;;;;;;6.17;86.78;99923.34;1785628;80;21730;-78
2021/01/24 09:42:12;;;;;;;7.58;3.72;;;;;;;6.20;86.59;99912.14;1785562;80;21189;-78
2021/01/24 09:45:20;;;;;;;12.47;4.70;;;;;;;6.25;86.33;99913.03;1785410;80;21702;-78
2021/01/24 09:48:26;;;;;;;11.90;4.45;;;;;;;6.28;85.71;99905.42;1785893;80;21299;-78
2021/01/24 09:51:32;;;;;;;9.90;4.03;;;;;;;6.32;85.28;99895.10;1785971;80;21311;-78
2021/01/24 09:54:37;;;;;;;8.68;4.03;;;;;;;6.31;84.80;99901.55;1785601;80;21750;-78
2021/01/24 09:57:44;;;;;;;7.72;3.70;;;;;;;6.30;84.43;99895.75;1785836;80;21168;-78
2021/01/24 10:00:48;;;;;;;12.82;4.05;;;;;;;6.32;84.43;99891.88;1785785;80;21343;-78
2021/01/24 10:03:57;;;;;;;13.03;3.92;;;;;;;6.34;84.25;99896.63;1785761;80;21300;-79
2021/01/24 10:07:02;;;;;;;11.30;4.62;;;;;;;6.35;84.08;99889.33;1785850;80;21539;-78
2021/01/24 10:10:08;;;;;;;10.03;4.08;;;;;;;6.35;83.81;99891.56;1785266;80;21188;-78
2021/01/24 10:13:13;;;;;;;12.70;4.90;;;;;;;6.39;83.76;99887.49;1785628;80;21173;-78
2021/01/24 10:16:19;;;;;;;9.25;4.12;;;;;;;6.46;83.89;99876.86;1785871;80;21165;-78
2021/01/24 10:19:24;;;;;;;11.08;4.10;;;;;;;6.55;83.81;99876.41;1785665;80;21204;-78
2021/01/24 10:22:29;;;;;;;10.28;4.20;;;;;;;6.64;83.69;99865.92;1785802;80;21192;-78
2021/01/24 10:25:35;;;;;;;9.50;3.80;;;;;;;6.72;83.38;99865.94;1785821;80;21300;-78
2021/01/24 10:28:40;;;;;;;6.90;3.50;;;;;;;6.76;83.03;99858.32;1785775;80;22187;-78
2021/01/24 10:31:45;;;;;;;10.63;4.72;;;;;;;6.79;82.80;99842.55;1784632;80;21264;-77
2021/01/24 10:34:52;;;;;;;9.48;4.05;;;;;;;6.84;82.14;99851.58;1785233;80;21193;-77
2021/01/24 10:37:59;;;;;;;10.65;4.40;;;;;;;6.88;81.89;99847.00;1785203;80;21312;-78
2021/01/24 10:41:05;;;;;;;9.70;4.05;;;;;;;6.95;81.95;99835.47;1785081;80;21876;-78
2021/01/24 10:44:11;;;;;;;10.93;4.65;;;;;;;7.02;81.01;99840.60;1784307;80;21331;-78
2021/01/24 10:47:16;;;;;;;8.25;3.85;;;;;;;7.07;80.41;99840.95;1784291;80;21177;-78
2021/01/24 10:50:21;;;;;;;8.85;4.45;;;;;;;7.12;80.15;99831.79;1784322;80;21193;-78
2021/01/24 10:53:26;;;;;;;9.63;6.65;;;;;;;7.17;79.82;99826.70;1784979;80;21205;-77
2021/01/24 10:56:31;;;;;;;8.35;4.45;;;;;;;7.18;79.07;99818.36;1785244;80;21224;-78
2021/01/24 10:59:38;;;;;;;11.88;5.03;;;;;;;7.17;78.85;99816.67;1785802;80;21268;-77
2021/01/24 11:02:43;;;;;;;9.80;4.22;;;;;;;7.15;78.77;99808.32;1784278;80;21792;-77
2021/01/24 11:05:49;;;;;;;9.63;4.25;;;;;;;7.15;78.68;99803.76;1785794;80;21149;-77
2021/01/24 11:08:55;;;;;;;11.60;5.50;;;;;;;7.14;78.79;99802.55;1784228;80;21817;-78
2021/01/24 11:12:02;;;;;;;14.03;6.05;;;;;;;7.14;78.72;99806.62;1784358;80;21192;-78
2021/01/24 11:15:09;;;;;;;10.18;4.92;;;;;;;7.10;78.88;99797.94;1784216;80;21299;-77
2021/01/24 11:18:14;;;;;;;12.37;5.15;;;;;;;7.07;79.13;99795.57;1784271;80;21327;-77
2021/01/24 11:21:19;;;;;;;8.98;5.10;;;;;;;7.08;79.28;99797.78;1784293;80;21734;-78
2021/01/24 11:24:24;;;;;;;15.00;5.45;;;;;;;7.07;79.31;99786.56;1784281;80;21781;-77
2021/01/24 11:27:30;;;;;;;12.45;5.50;;;;;;;7.08;79.48;99790.98;1784897;80;21267;-77
2021/01/24 11:30:36;;;;;;;12.40;5.42;;;;;;;7.08;79.60;99778.23;1785749;80;21268;-77
2021/01/24 11:33:41;;;;;;;12.33;5.17;;;;;;;7.08;79.60;99778.74;1784711;80;21212;-77
2021/01/24 11:36:48;;;;;;;9.10;4.83;;;;;;;7.10;79.94;99772.61;1784010;80;21189;-77
2021/01/24 11:39:54;;;;;;;16.23;5.70;;;;;;;7.12;79.65;99770.08;1785767;80;21331;-77
2021/01/24 11:43:00;;;;;;;11.50;4.80;;;;;;;7.13;79.70;99765.49;1784372;80;21284;-77
2021/01/24 11:46:05;;;;;;;9.93;5.17;;;;;;;7.15;79.53;99760.72;1785663;80;21192;-77
2021/01/24 11:49:12;;;;;;;10.23;4.92;;;;;;;7.13;79.45;99762.77;1784548;80;21881;-77
2021/01/24 11:52:16;;;;;;;11.80;4.87;;;;;;;7.14;79.45;99776.70;1785052;80;21275;-77
2021/01/24 11:55:22;;;;;;;10.55;4.65;;;;;;;7.15;79.69;99772.95;1785743;80;21199;-77
2021/01/24 11:58:28;;;;;;;9.95;4.50;;;;;;;7.13;79.81;99760.05;1784441;80;21248;-77
2021/01/24 12:01:34;;;;;;;14.55;5.53;;;;;;;7.13;79.67;99760.05;1785633;80;21292;-77
2021/01/24 12:04:40;;;;;;;10.70;4.97;;;;;;;7.11;79.76;99771.11;1785745;80;21761;-77
2021/01/24 12:07:46;;;;;;;8.38;4.30;;;;;;;7.09;79.77;99765.48;1785343;80;21215;-77
2021/01/24 12:10:51;;;;;;;12.25;4.95;;;;;;;7.08;79.76;99765.14;1785738;80;21157;-77
2021/01/24 12:13:59;;;;;;;8.15;4.33;;;;;;;7.06;79.78;99765.32;1784647;80;21157;-77
2021/01/24 12:17:05;;;;;;;10.93;6.50;;;;;;;7.04;79.83;99765.98;1785829;80;21728;-77
2021/01/24 12:20:13;;;;;;;15.13;6.28;;;;;;;7.04;79.81;99758.33;1785905;80;21256;-77
2021/01/24 12:23:20;;;;;;;16.48;7.25;;;;;;;7.04;79.75;99756.97;1785128;80;21757;-77
2021/01/24 12:26:26;;;;;;;22.82;12.07;;;;;;;7.03;79.67;99755.28;1785906;80;21141;-77
2021/01/24 12:29:31;;;;;;;12.37;5.58;;;;;;;7.03;79.64;99758.00;1785682;80;21319;-77
2021/01/24 12:32:36;;;;;;;10.78;5.55;;;;;;;7.02;79.65;99755.80;1785687;80;21340;-77
2021/01/24 12:35:42;;;;;;;8.13;4.42;;;;;;;7.01;79.71;99754.58;1785894;80;21260;-77
2021/01/24 12:38:48;;;;;;;8.80;4.90;;;;;;;7.01;79.61;99759.53;1777525;81;21275;-77
2021/01/24 12:41:54;;;;;;;13.25;5.45;;;;;;;7.02;79.58;99750.86;1777615;81;21220;-77
2021/01/24 12:45:00;;;;;;;10.53;4.90;;;;;;;7.03;79.60;99756.64;1777574;81;21259;-77
2021/01/24 12:48:06;;;;;;;9.78;4.87;;;;;;;7.01;79.47;99762.25;1777658;81;21935;-77
2021/01/24 12:51:13;;;;;;;10.60;5.67;;;;;;;7.00;79.36;99752.88;1777563;81;21295;-77
2021/01/24 12:54:18;;;;;;;12.13;6.22;;;;;;;7.00;79.33;99752.37;1777570;81;21164;-77
2021/01/24 12:57:27;;;;;;;13.22;5.15;;;;;;;6.99;79.22;99751.19;1777587;81;21314;-78
2021/01/24 13:00:32;;;;;;;9.10;4.70;;;;;;;6.96;79.06;99739.27;1777488;81;21255;-77
2021/01/24 13:03:39;;;;;;;66.25;31.73;;;;;;;6.94;79.10;99737.25;1776702;81;21290;-77
2021/01/24 13:06:45;;;;;;;45.75;21.50;;;;;;;6.90;79.03;99722.61;1777676;81;21188;-77
2021/01/24 13:09:49;;;;;;;19.70;11.90;;;;;;;6.88;79.07;99727.38;1777625;81;21271;-77
2021/01/24 13:12:55;;;;;;;24.15;12.00;;;;;;;6.86;79.14;99728.04;1777538;81;21290;-77
2021/01/24 13:16:00;;;;;;;15.43;7.70;;;;;;;6.84;79.20;99729.23;1777537;81;21259;-77
2021/01/24 13:19:06;;;;;;;11.38;6.40;;;;;;;6.83;79.01;99725.67;1777470;81;21607;-77
2021/01/24 13:22:12;;;;;;;12.73;5.95;;;;;;;6.82;79.02;99724.45;1777546;81;21263;-77
2021/01/24 13:25:19;;;;;;;11.78;5.37;;;;;;;6.79;79.08;99718.86;1777568;81;21298;-77
2021/01/24 13:28:24;;;;;;;9.90;4.80;;;;;;;6.75;79.20;99718.85;1777465;81;21832;-76
2021/01/24 13:31:30;;;;;;;15.13;5.12;;;;;;;6.72;79.29;99721.05;1777505;81;21260;-77
2021/01/24 13:34:35;;;;;;;12.15;4.80;;;;;;;6.65;79.41;99727.66;1777598;81;21706;-77
2021/01/24 13:37:42;;;;;;;20.08;5.92;;;;;;;6.62;79.68;99719.83;1779623;80;21180;-77
2021/01/24 13:40:51;;;;;;;9.43;4.67;;;;;;;6.57;79.95;99718.97;1785891;80;21150;-77
2021/01/24 13:43:56;;;;;;;10.30;4.62;;;;;;;6.53;80.20;99718.95;1784703;80;21180;-77
2021/01/24 13:47:02;;;;;;;8.00;4.25;;;;;;;6.50;80.39;99719.30;1772353;80;21268;-77
2021/01/24 13:50:09;;;;;;;11.60;5.25;;;;;;;6.47;80.59;99719.61;1785718;80;21701;-76
2021/01/24 13:53:15;;;;;;;9.13;4.33;;;;;;;6.43;80.78;99722.31;1781098;80;21188;-77
2021/01/24 13:56:21;;;;;;;14.05;5.30;;;;;;;6.38;80.98;99724.16;1785745;80;21180;-77
2021/01/24 13:59:26;;;;;;;10.32;7.03;;;;;;;6.34;81.09;99724.14;1785719;80;21727;-77
2021/01/24 14:02:32;;;;;;;12.15;5.22;;;;;;;6.32;81.23;99721.26;1785857;80;21826;-76
2021/01/24 14:05:39;;;;;;;11.15;5.30;;;;;;;6.29;81.38;99717.50;1785854;80;21161;-77
2021/01/24 14:08:43;;;;;;;10.50;5.03;;;;;;;6.24;81.51;99715.27;1785788;80;21204;-77
2021/01/24 14:11:49;;;;;;;39.23;18.48;;;;;;;6.20;81.69;99715.25;1785841;80;21729;-77
2021/01/24 14:14:55;;;;;;;96.55;43.63;;;;;;;6.18;81.79;99730.87;1785253;80;21335;-77
2021/01/24 14:18:03;;;;;;;49.23;21.55;;;;;;;6.13;81.88;99728.64;1785625;80;21228;-76
2021/01/24 14:21:08;;;;;;;22.70;10.88;;;;;;;6.09;81.93;99726.41;1785806;80;21288;-77
2021/01/24 14:24:14;;;;;;;17.82;6.45;;;;;;;6.05;81.98;99735.88;1785722;80;21809;-77
2021/01/24 14:27:19;;;;;;;17.85;7.15;;;;;;;6.00;82.04;99730.09;1785778;80;21754;-77
2021/01/24 14:30:26;;;;;;;12.98;7.15;;;;;;;6.00;82.04;99735.52;1785759;80;21161;-77
2021/01/24 14:33:33;;;;;;;15.13;6.58;;;;;;;5.97;82.07;99735.83;1785685;80;21288;-77
2021/01/24 14:36:40;;;;;;;16.37;6.95;;;;;;;5.94;82.09;99734.81;1785765;80;21118;-77
2021/01/24 14:39:45;;;;;;;14.47;6.58;;;;;;;5.92;82.12;99731.39;1777498;80;21296;-76